Time;durP1;ratioP1;P1;durP2;ratioP2;P2;SDS_P1;SDS_P2;PMS_P1;PMS_P2;Temp;Humidity;BMP_temperature;BMP_pressure;BME280_temperature;BME280_humidity;BME280_pressure;Samples;Min_cycle;Max_cycle;Signal;HPM_P1;HPM_P2
2023/07/16 00:00:12;;;;;;;4.53;2.42;;;23.20;68.50;;;;;;10444023;28;20060;-56
2023/07/16 00:05:13;;;;;;;7.40;3.10;;;23.20;68.30;;;;;;10442908;28;20345;-56
2023/07/16 00:10:13;;;;;;;5.45;2.17;;;23.20;68.30;;;;;;10427310;28;20101;-57
2023/07/16 00:15:14;;;;;;;2.80;1.83;;;23.20;68.20;;;;;;10420137;28;20387;-55
2023/07/16 00:20:15;;;;;;;5.10;2.50;;;23.20;67.90;;;;;;10443520;28;20114;-56
2023/07/16 00:25:16;;;;;;;3.40;2.40;;;23.20;67.80;;;;;;10443120;28;20047;-56
2023/07/16 00:30:16;;;;;;;4.80;2.47;;;23.20;67.60;;;;;;10443165;28;20460;-56
2023/07/16 00:35:17;;;;;;;3.35;1.67;;;23.20;67.20;;;;;;10443345;28;20052;-56
2023/07/16 00:40:18;;;;;;;5.03;2.03;;;23.20;66.90;;;;;;10442569;28;20051;-56
2023/07/16 00:45:18;;;;;;;3.78;1.80;;;23.10;66.60;;;;;;10442894;28;20024;-55
2023/07/16 00:50:20;;;;;;;3.13;2.03;;;23.10;66.40;;;;;;10442649;28;20115;-56
2023/07/16 00:55:21;;;;;;;2.85;1.80;;;23.10;66.30;;;;;;10441355;28;20028;-55
2023/07/16 01:00:21;;;;;;;3.90;2.58;;;23.10;66.40;;;;;;10442628;28;20026;-56
2023/07/16 01:05:27;;;;;;;2.90;1.95;;;23.10;66.40;;;;;;10449884;28;20021;-56
2023/07/16 01:10:29;;;;;;;4.10;2.42;;;23.10;66.50;;;;;;10431578;28;20026;-56
2023/07/16 01:15:29;;;;;;;4.30;2.67;;;23.10;66.60;;;;;;10428647;28;20020;-56
2023/07/16 01:20:30;;;;;;;5.93;2.40;;;23.10;67.30;;;;;;10450303;28;20082;-56
2023/07/16 01:26:02;;;;;;;2.80;1.95;;;23.10;66.70;;;;;;10449963;28;20026;-56
2023/07/16 01:31:03;;;;;;;5.28;2.20;;;23.10;66.70;;;;;;10449603;28;20472;-56
2023/07/16 01:36:04;;;;;;;4.32;2.47;;;23.10;66.60;;;;;;10449123;28;20345;-55
2023/07/16 01:41:05;;;;;;;3.67;2.10;;;23.10;66.30;;;;;;10447913;28;20084;-55
2023/07/16 01:46:06;;;;;;;5.45;1.67;;;23.10;66.10;;;;;;10449199;28;20612;-55
2023/07/16 01:51:06;;;;;;;3.20;1.83;;;23.10;65.80;;;;;;10448267;28;20048;-56
2023/07/16 01:56:07;;;;;;;3.22;2.55;;;23.00;65.80;;;;;;10448749;28;20009;-57
2023/07/16 02:01:08;;;;;;;3.25;1.63;;;23.10;65.80;;;;;;10448881;28;20029;-57
2023/07/16 02:06:09;;;;;;;3.85;2.22;;;23.00;65.50;;;;;;10448652;28;20017;-56
2023/07/16 02:11:09;;;;;;;4.07;1.70;;;23.00;65.50;;;;;;10424253;28;20118;-56
2023/07/16 02:16:10;;;;;;;5.50;2.65;;;23.00;65.50;;;;;;10431321;28;20105;-56
2023/07/16 02:21:11;;;;;;;4.20;2.05;;;23.00;65.70;;;;;;10447870;28;20029;-55
2023/07/16 02:26:11;;;;;;;4.65;1.88;;;23.00;65.50;;;;;;10447606;28;20033;-56
2023/07/16 02:31:12;;;;;;;4.45;2.03;;;23.00;65.30;;;;;;10447625;28;20036;-55
2023/07/16 02:36:13;;;;;;;5.32;2.17;;;23.00;65.20;;;;;;10447104;28;20112;-56
2023/07/16 02:41:13;;;;;;;3.13;2.10;;;23.00;65.30;;;;;;10447000;28;20123;-56
2023/07/16 02:46:14;;;;;;;4.90;2.15;;;23.00;65.50;;;;;;10446919;28;20105;-56
2023/07/16 02:51:15;;;;;;;4.25;2.05;;;23.00;65.30;;;;;;10446902;28;20476;-56
2023/07/16 02:56:16;;;;;;;2.85;1.90;;;23.00;65.00;;;;;;10446812;28;20098;-55
2023/07/16 03:01:17;;;;;;;3.53;2.22;;;23.00;64.90;;;;;;10446457;28;20542;-55
2023/07/16 03:06:17;;;;;;;7.47;2.42;;;23.00;65.30;;;;;;10446777;28;20025;-56
2023/07/16 03:11:18;;;;;;;3.95;2.10;;;22.90;65.00;;;;;;10419507;28;20022;-55
2023/07/16 03:16:19;;;;;;;4.50;2.10;;;22.90;64.90;;;;;;10430523;28;20158;-55
2023/07/16 03:21:22;;;;;;;4.47;1.98;;;22.90;65.30;;;;;;10445320;28;20112;-56
2023/07/16 03:26:22;;;;;;;3.80;2.13;;;22.90;65.20;;;;;;10441723;28;20110;-56
2023/07/16 03:31:23;;;;;;;5.10;3.13;;;22.90;65.00;;;;;;10461035;28;20134;-55
2023/07/16 03:36:24;;;;;;;5.30;2.30;;;22.90;65.00;;;;;;10447141;28;20468;-56
2023/07/16 03:41:24;;;;;;;3.30;2.03;;;22.90;65.10;;;;;;10444469;28;20395;-56
2023/07/16 03:46:25;;;;;;;3.67;2.00;;;22.90;65.40;;;;;;10446433;28;20025;-57
2023/07/16 03:51:26;;;;;;;4.50;2.30;;;22.90;65.50;;;;;;10445809;28;20035;-57
2023/07/16 03:56:26;;;;;;;4.07;2.00;;;22.90;65.20;;;;;;10445537;28;20021;-55
2023/07/16 04:01:27;;;;;;;3.58;2.00;;;22.90;65.10;;;;;;10445359;28;20029;-55
2023/07/16 04:06:28;;;;;;;3.65;2.22;;;22.90;65.10;;;;;;10445668;28;20476;-55
2023/07/16 04:11:28;;;;;;;3.72;2.35;;;22.90;64.90;;;;;;10435214;28;20120;-56
2023/07/16 04:16:29;;;;;;;3.28;1.88;;;22.90;65.00;;;;;;10422888;28;20524;-57
2023/07/16 04:21:30;;;;;;;3.22;2.40;;;22.90;65.30;;;;;;10422198;28;20034;-55
2023/07/16 04:26:30;;;;;;;3.70;2.00;;;22.80;65.20;;;;;;10417105;28;20093;-55
2023/07/16 04:31:31;;;;;;;5.30;3.08;;;22.90;64.90;;;;;;10403433;28;20049;-56
2023/07/16 04:36:32;;;;;;;4.00;2.05;;;22.90;64.70;;;;;;10402972;28;20435;-55
2023/07/16 04:41:32;;;;;;;3.17;2.22;;;22.80;64.50;;;;;;10403304;28;20607;-54
2023/07/16 04:46:33;;;;;;;3.72;2.05;;;22.80;64.50;;;;;;10403125;28;20469;-55
2023/07/16 04:51:34;;;;;;;5.82;2.28;;;22.80;64.70;;;;;;10402932;28;20013;-55
2023/07/16 04:56:35;;;;;;;11.50;2.55;;;22.90;64.70;;;;;;10402756;28;20079;-56
2023/07/16 05:01:35;;;;;;;8.30;2.50;;;22.80;64.70;;;;;;10403020;28;20560;-54
2023/07/16 05:06:36;;;;;;;5.15;2.75;;;22.90;65.60;;;;;;10403754;28;20385;-54
2023/07/16 05:11:38;;;;;;;7.70;3.08;;;22.90;65.30;;;;;;10416398;28;20084;-55
2023/07/16 05:16:38;;;;;;;7.68;2.40;;;23.00;65.60;;;;;;10431482;28;20025;-54
2023/07/16 05:21:39;;;;;;;5.75;2.30;;;23.00;65.40;;;;;;10443405;28;20024;-59
2023/07/16 05:26:40;;;;;;;13.13;3.10;;;23.00;65.10;;;;;;10441542;28;20026;-55
2023/07/16 05:31:42;;;;;;;15.40;3.38;;;23.00;64.90;;;;;;10430809;28;20385;-55
2023/07/16 05:36:46;;;;;;;14.30;3.22;;;22.90;65.50;;;;;;10429682;28;20049;-55
2023/07/16 05:41:47;;;;;;;16.80;3.88;;;23.00;65.40;;;;;;10430389;28;20419;-54
2023/07/16 05:46:47;;;;;;;12.05;3.13;;;22.90;64.90;;;;;;10427325;28;20023;-59
2023/07/16 05:51:48;;;;;;;10.75;2.97;;;22.90;65.20;;;;;;10441698;28;20021;-55
2023/07/16 05:56:49;;;;;;;10.75;3.13;;;23.00;65.60;;;;;;10422226;28;20171;-56
2023/07/16 06:01:50;;;;;;;10.77;3.90;;;22.90;65.30;;;;;;10437395;28;20017;-55
2023/07/16 06:06:50;;;;;;;6.82;2.55;;;22.90;65.40;;;;;;10451705;28;20025;-57
2023/07/16 06:11:51;;;;;;;12.00;3.25;;;22.90;65.40;;;;;;10445296;28;20130;-56
2023/07/16 06:16:52;;;;;;;17.88;4.43;;;23.10;64.80;;;;;;10447908;28;20506;-56
2023/07/16 06:21:53;;;;;;;25.50;5.85;;;23.10;64.10;;;;;;10450350;28;20387;-58
2023/07/16 06:26:53;;;;;;;15.18;5.93;;;23.00;63.60;;;;;;10442124;28;20084;-57
2023/07/16 06:31:56;;;;;;;9.20;4.72;;;22.90;61.90;;;;;;10447663;28;20031;-58
2023/07/16 06:36:57;;;;;;;13.95;5.25;;;22.90;61.20;;;;;;10445301;28;20023;-58
2023/07/16 06:41:58;;;;;;;9.65;4.80;;;22.80;61.20;;;;;;10448053;28;20045;-58
2023/07/16 06:46:58;;;;;;;10.82;5.70;;;22.80;60.70;;;;;;10449652;28;20032;-58
2023/07/16 06:52:02;;;;;;;14.57;5.40;;;22.80;60.20;;;;;;10449512;28;20721;-58
2023/07/16 06:57:03;;;;;;;13.82;6.63;;;22.80;60.00;;;;;;10450088;28;20460;-59
2023/07/16 07:02:03;;;;;;;9.02;5.20;;;22.70;60.00;;;;;;10449924;28;20120;-58
2023/07/16 07:07:06;;;;;;;8.60;4.97;;;22.70;60.00;;;;;;10445912;28;20036;-58
2023/07/16 07:12:07;;;;;;;9.18;5.43;;;22.70;60.30;;;;;;10449045;28;20071;-57
2023/07/16 07:17:08;;;;;;;14.95;5.45;;;22.80;59.60;;;;;;10442567;28;20700;-58
2023/07/16 07:22:09;;;;;;;15.07;5.38;;;22.80;60.90;;;;;;10447286;28;20029;-57
2023/07/16 07:27:09;;;;;;;16.55;5.40;;;22.80;60.40;;;;;;10447897;28;20032;-57
2023/07/16 07:32:10;;;;;;;17.77;6.30;;;22.80;60.40;;;;;;10448531;28;20013;-57
2023/07/16 07:37:11;;;;;;;15.90;6.45;;;22.80;60.50;;;;;;10446648;28;20031;-55
2023/07/16 07:42:11;;;;;;;14.93;6.05;;;22.90;60.40;;;;;;10430865;28;20075;-56
2023/07/16 07:47:12;;;;;;;13.40;5.82;;;22.90;60.20;;;;;;10442955;28;20050;-58
2023/07/16 07:52:12;;;;;;;13.55;6.25;;;22.90;60.30;;;;;;10441716;28;20116;-59
2023/07/16 07:57:13;;;;;;;12.77;5.50;;;22.90;60.20;;;;;;10442736;28;20041;-58
2023/07/16 08:02:14;;;;;;;18.67;7.68;;;22.90;60.20;;;;;;10447071;28;20044;-57
2023/07/16 08:07:14;;;;;;;18.38;5.72;;;22.90;59.50;;;;;;10447558;28;20404;-57
2023/07/16 08:12:15;;;;;;;18.50;5.88;;;22.80;59.00;;;;;;10441251;28;20094;-60
2023/07/16 08:17:16;;;;;;;11.48;5.50;;;22.80;59.90;;;;;;10413217;28;20128;-56
2023/07/16 08:22:16;;;;;;;9.60;5.10;;;22.90;59.80;;;;;;10417065;28;20029;-56
2023/07/16 08:27:18;;;;;;;11.55;5.38;;;22.90;59.40;;;;;;10446824;28;20029;-56
2023/07/16 08:32:19;;;;;;;10.15;5.43;;;22.90;59.00;;;;;;10446601;28;20021;-55
2023/07/16 08:37:20;;;;;;;10.65;6.20;;;22.90;59.10;;;;;;10445492;28;20053;-57
2023/07/16 08:42:20;;;;;;;9.52;5.70;;;22.90;60.00;;;;;;10445853;28;20072;-57
2023/07/16 08:47:21;;;;;;;8.05;6.38;;;22.90;59.40;;;;;;10445893;28;20024;-57
2023/07/16 08:52:22;;;;;;;22.60;6.40;;;22.90;59.60;;;;;;10445662;28;20078;-56
2023/07/16 08:57:23;;;;;;;9.25;5.57;;;22.90;59.60;;;;;;10447300;28;20064;-58
2023/07/16 09:02:24;;;;;;;18.80;6.30;;;22.90;59.80;;;;;;10445465;28;20044;-59
2023/07/16 09:07:25;;;;;;;13.40;6.60;;;22.90;60.00;;;;;;10444456;28;20027;-56
2023/07/16 09:12:26;;;;;;;18.35;6.53;;;22.80;58.60;;;;;;10411797;28;20057;-57
2023/07/16 09:17:27;;;;;;;8.93;5.43;;;22.90;59.90;;;;;;10439986;28;20025;-57
2023/07/16 09:22:29;;;;;;;20.98;7.75;;;22.90;59.70;;;;;;10445913;28;20540;-60
2023/07/16 09:27:31;;;;;;;17.02;7.32;;;22.70;59.30;;;;;;10453823;28;20021;-57
2023/07/16 09:32:37;;;;;;;30.15;7.15;;;22.70;59.60;;;;;;10453213;28;20025;-57
2023/07/16 09:37:39;;;;;;;42.83;8.57;;;22.80;59.40;;;;;;10452531;28;20104;-57
2023/07/16 09:42:42;;;;;;;23.13;7.20;;;22.80;59.30;;;;;;10451538;28;20045;-57
2023/07/16 09:47:43;;;;;;;11.07;5.93;;;22.70;59.30;;;;;;10452789;28;20017;-58
2023/07/16 09:52:47;;;;;;;16.70;6.47;;;22.80;59.20;;;;;;10435032;28;20526;-57
2023/07/16 09:57:48;;;;;;;14.48;6.05;;;22.80;59.20;;;;;;10450965;28;20025;-57
2023/07/16 10:02:52;;;;;;;13.85;6.03;;;22.90;59.30;;;;;;10452321;28;20036;-57
2023/07/16 10:08:00;;;;;;;11.55;5.93;;;23.00;59.70;;;;;;10451906;28;20056;-58
2023/07/16 10:13:04;;;;;;;10.10;5.87;;;23.10;59.60;;;;;;10411471;28;20535;-57
2023/07/16 10:18:04;;;;;;;15.10;6.30;;;23.20;59.50;;;;;;10450600;28;20273;-60
2023/07/16 10:23:16;;;;;;;8.43;5.43;;;23.10;59.50;;;;;;10451475;28;20736;-56
2023/07/16 10:28:16;;;;;;;11.20;6.47;;;23.10;59.10;;;;;;10450171;28;20368;-59
2023/07/16 10:33:17;;;;;;;12.93;5.60;;;23.00;59.70;;;;;;10450849;28;20029;-58
2023/07/16 10:38:18;;;;;;;8.88;5.40;;;23.00;59.90;;;;;;10451375;28;20541;-56
2023/07/16 10:43:19;;;;;;;12.68;6.47;;;23.00;60.50;;;;;;10450361;28;20049;-56
2023/07/16 10:48:26;;;;;;;10.13;5.82;;;23.00;60.50;;;;;;10448079;28;20502;-56
2023/07/16 10:53:26;;;;;;;12.07;5.45;;;23.00;60.40;;;;;;10450028;28;20101;-58
2023/07/16 10:58:27;;;;;;;14.75;6.70;;;23.00;60.90;;;;;;10447510;28;20031;-56
2023/07/16 11:03:28;;;;;;;14.52;6.93;;;23.00;62.00;;;;;;10442333;28;20055;-56
2023/07/16 11:08:28;;;;;;;13.75;5.80;;;22.90;61.10;;;;;;10442488;28;20071;-56
2023/07/16 11:13:31;;;;;;;10.65;5.22;;;22.90;61.30;;;;;;10406105;28;20111;-55
2023/07/16 11:18:32;;;;;;;11.75;4.95;;;22.90;61.40;;;;;;10444983;28;20357;-57
2023/07/16 11:23:36;;;;;;;9.60;5.28;;;22.90;61.30;;;;;;10444154;28;20037;-56
2023/07/16 11:28:41;;;;;;;9.43;6.93;;;22.90;61.30;;;;;;10446049;28;20408;-55
2023/07/16 11:33:44;;;;;;;9.70;4.78;;;22.90;61.30;;;;;;10446763;28;20723;-57
2023/07/16 11:38:45;;;;;;;8.70;5.00;;;22.90;61.30;;;;;;10446000;28;20017;-55
2023/07/16 11:43:45;;;;;;;10.05;5.22;;;22.90;61.30;;;;;;10445614;28;20708;-56
2023/07/16 11:48:46;;;;;;;9.43;5.43;;;22.90;61.20;;;;;;10445390;28;20424;-57
2023/07/16 11:53:47;;;;;;;7.30;4.63;;;23.00;61.30;;;;;;10445486;28;20514;-57
2023/07/16 11:58:49;;;;;;;6.70;4.75;;;23.00;61.30;;;;;;10445296;28;20048;-57
2023/07/16 12:03:49;;;;;;;7.05;4.70;;;23.00;61.20;;;;;;10445372;28;20029;-57
2023/07/16 12:08:50;;;;;;;7.05;4.82;;;23.00;60.90;;;;;;10440566;28;20030;-56
2023/07/16 12:13:51;;;;;;;7.38;4.07;;;23.00;61.00;;;;;;10409893;28;20030;-57
2023/07/16 12:18:51;;;;;;;7.88;4.85;;;23.00;61.40;;;;;;10444807;28;20120;-56
2023/07/16 12:23:52;;;;;;;8.50;5.40;;;23.00;61.30;;;;;;10443559;28;20341;-56
2023/07/16 12:28:53;;;;;;;6.20;3.90;;;23.00;61.40;;;;;;10445107;28;20015;-55
2023/07/16 12:33:53;;;;;;;7.20;4.40;;;23.00;61.10;;;;;;10445332;28;20073;-55
2023/07/16 12:38:54;;;;;;;6.65;4.18;;;23.00;61.10;;;;;;10444093;28;20057;-56
2023/07/16 12:43:55;;;;;;;8.52;4.50;;;23.00;61.00;;;;;;10444293;28;20088;-56
2023/07/16 12:48:55;;;;;;;8.63;5.35;;;23.00;61.00;;;;;;10444351;28;20104;-57
2023/07/16 12:53:56;;;;;;;12.90;4.82;;;23.00;61.20;;;;;;10444535;28;20040;-57
2023/07/16 12:58:56;;;;;;;8.15;4.45;;;23.10;61.00;;;;;;10450002;28;20479;-57
2023/07/16 13:03:57;;;;;;;5.95;3.85;;;23.10;61.10;;;;;;10452055;28;20033;-56
2023/07/16 13:08:59;;;;;;;6.47;4.22;;;23.10;61.20;;;;;;10446125;28;20096;-56
2023/07/16 13:13:59;;;;;;;8.18;4.10;;;23.00;61.30;;;;;;10417856;28;20045;-56
2023/07/16 13:19:00;;;;;;;4.70;3.78;;;23.00;61.30;;;;;;10452022;28;20025;-57
2023/07/16 13:24:01;;;;;;;4.80;3.88;;;23.00;61.40;;;;;;10451429;28;20033;-55
2023/07/16 13:29:01;;;;;;;4.60;3.40;;;23.10;61.40;;;;;;10451532;28;20032;-57
2023/07/16 13:34:02;;;;;;;6.80;4.32;;;23.00;61.40;;;;;;10452010;28;20035;-57
2023/07/16 13:39:04;;;;;;;6.85;4.50;;;23.10;62.00;;;;;;10451073;28;20057;-57
2023/07/16 13:44:05;;;;;;;8.00;4.60;;;23.10;61.40;;;;;;10409591;28;20026;-57
2023/07/16 13:49:06;;;;;;;5.85;4.30;;;23.10;61.40;;;;;;10409552;28;20026;-57
2023/07/16 13:54:06;;;;;;;6.57;4.38;;;23.10;61.50;;;;;;10408082;28;20460;-57
2023/07/16 13:59:07;;;;;;;6.72;3.88;;;23.10;61.40;;;;;;10409062;28;20029;-56
2023/07/16 14:04:08;;;;;;;5.93;3.25;;;23.10;61.40;;;;;;10409082;28;20036;-57
2023/07/16 14:09:08;;;;;;;6.13;4.10;;;23.10;61.40;;;;;;10421379;28;20112;-58
2023/07/16 14:14:09;;;;;;;5.88;4.07;;;23.10;61.20;;;;;;10416861;28;20134;-57
2023/07/16 14:19:12;;;;;;;6.55;3.75;;;23.10;61.30;;;;;;10449551;28;20060;-56
2023/07/16 14:24:13;;;;;;;4.65;3.45;;;23.10;61.60;;;;;;10449434;28;20076;-56
2023/07/16 14:29:13;;;;;;;5.22;3.83;;;23.10;61.50;;;;;;10449144;28;20025;-56
2023/07/16 14:34:14;;;;;;;7.32;4.82;;;23.10;61.60;;;;;;10449722;28;20104;-57
2023/07/16 14:39:15;;;;;;;5.20;3.58;;;23.00;61.70;;;;;;10448919;28;20556;-57
2023/07/16 14:44:15;;;;;;;5.75;3.30;;;23.00;61.80;;;;;;10448437;28;20665;-58
2023/07/16 14:49:16;;;;;;;5.03;3.17;;;23.00;62.00;;;;;;10448139;28;20535;-57
2023/07/16 14:54:17;;;;;;;6.25;4.50;;;23.00;62.20;;;;;;10448445;28;20111;-56
2023/07/16 14:59:17;;;;;;;5.25;3.78;;;23.00;62.10;;;;;;10448356;28;20025;-58
2023/07/16 15:04:18;;;;;;;4.95;3.35;;;23.00;62.00;;;;;;10446431;28;20120;-56
2023/07/16 15:09:19;;;;;;;4.35;3.17;;;23.00;62.00;;;;;;10438972;28;20014;-57
2023/07/16 15:14:19;;;;;;;4.75;3.38;;;23.00;62.00;;;;;;10415412;28;20017;-58
2023/07/16 15:19:20;;;;;;;5.15;3.38;;;23.10;61.90;;;;;;10446256;28;20365;-57
2023/07/16 15:24:21;;;;;;;6.97;3.47;;;23.10;67.10;;;;;;10446620;28;20029;-58
2023/07/16 15:29:21;;;;;;;5.18;2.90;;;23.10;66.60;;;;;;10446445;28;20360;-57
2023/07/16 15:34:22;;;;;;;4.53;3.38;;;23.20;66.00;;;;;;10446504;28;20104;-57
2023/07/16 15:39:23;;;;;;;5.95;3.80;;;23.20;65.30;;;;;;10446278;28;20108;-58
2023/07/16 15:44:23;;;;;;;4.40;3.22;;;23.20;65.20;;;;;;10446513;28;20044;-58
2023/07/16 15:49:24;;;;;;;3.80;2.50;;;23.20;65.10;;;;;;10445205;28;20359;-56
2023/07/16 15:54:25;;;;;;;4.82;3.33;;;23.20;64.90;;;;;;10446072;28;20151;-56
2023/07/16 15:59:26;;;;;;;4.90;3.15;;;23.20;64.70;;;;;;10445541;28;20028;-56
2023/07/16 16:04:26;;;;;;;3.30;2.80;;;23.20;64.50;;;;;;10445344;28;20035;-57
2023/07/16 16:09:27;;;;;;;4.78;2.70;;;23.20;64.50;;;;;;10435770;28;20020;-57
2023/07/16 16:14:27;;;;;;;4.03;3.10;;;23.20;64.40;;;;;;10414560;28;20104;-57
2023/07/16 16:19:28;;;;;;;4.95;2.65;;;23.10;64.40;;;;;;10444917;28;20108;-56
2023/07/16 16:24:29;;;;;;;3.65;2.67;;;23.10;64.30;;;;;;10443630;28;20053;-57
2023/07/16 16:29:29;;;;;;;4.22;2.53;;;23.10;64.20;;;;;;10444909;28;20119;-57
2023/07/16 16:34:30;;;;;;;3.65;2.78;;;23.10;64.90;;;;;;10444612;28;20052;-57
2023/07/16 16:39:31;;;;;;;4.25;2.88;;;23.00;64.10;;;;;;10444085;28;20392;-57
2023/07/16 16:44:33;;;;;;;4.90;2.80;;;23.10;64.10;;;;;;10444148;28;20114;-57
2023/07/16 16:49:34;;;;;;;4.50;3.10;;;23.10;64.10;;;;;;10444456;28;20051;-58
2023/07/16 16:54:36;;;;;;;4.72;3.20;;;23.10;64.00;;;;;;10443950;28;20028;-57
2023/07/16 16:59:37;;;;;;;5.68;3.03;;;23.10;64.00;;;;;;10444894;28;20595;-57
2023/07/16 17:04:39;;;;;;;4.72;2.67;;;23.10;64.00;;;;;;10443431;28;20033;-57
2023/07/16 17:09:41;;;;;;;4.95;3.03;;;23.10;63.90;;;;;;10432279;28;20405;-57
2023/07/16 17:14:44;;;;;;;4.25;2.63;;;23.10;63.70;;;;;;10415433;28;20029;-56
2023/07/16 17:19:48;;;;;;;4.80;3.08;;;23.10;63.30;;;;;;10414571;28;20700;-56
2023/07/16 17:24:49;;;;;;;3.88;2.47;;;23.10;63.50;;;;;;10402456;28;20711;-57
2023/07/16 17:29:50;;;;;;;5.80;2.80;;;23.10;63.10;;;;;;10402072;28;20056;-57
2023/07/16 17:34:51;;;;;;;3.22;2.63;;;23.10;63.30;;;;;;10401950;28;20033;-57
2023/07/16 17:39:52;;;;;;;5.20;3.05;;;23.10;63.10;;;;;;10401697;28;20478;-57
2023/07/16 17:44:54;;;;;;;3.38;2.45;;;23.10;63.50;;;;;;10405074;28;20083;-57
2023/07/16 17:49:54;;;;;;;4.45;2.40;;;23.10;63.50;;;;;;10409957;28;20261;-58
2023/07/16 17:54:55;;;;;;;3.40;2.55;;;23.00;63.40;;;;;;10410032;28;20017;-57
2023/07/16 17:59:56;;;;;;;4.13;2.95;;;23.00;63.60;;;;;;10408921;28;20094;-57
2023/07/16 18:04:56;;;;;;;3.05;2.13;;;23.00;63.70;;;;;;10409156;28;20057;-58
2023/07/16 18:09:57;;;;;;;3.83;2.78;;;23.00;63.70;;;;;;10421771;28;20064;-56
2023/07/16 18:14:58;;;;;;;3.42;2.35;;;23.00;63.80;;;;;;10423073;28;20104;-56
2023/07/16 18:19:58;;;;;;;4.30;2.58;;;23.00;64.00;;;;;;10448185;28;20395;-58
2023/07/16 18:24:59;;;;;;;4.13;2.70;;;23.00;63.90;;;;;;10449159;28;20781;-57
2023/07/16 18:30:05;;;;;;;3.80;2.80;;;23.00;63.90;;;;;;10449191;28;20017;-57
2023/07/16 18:35:06;;;;;;;4.07;2.33;;;23.00;64.00;;;;;;10448901;28;20061;-57
2023/07/16 18:40:10;;;;;;;5.13;2.50;;;22.90;63.90;;;;;;10448259;28;20057;-58
2023/07/16 18:45:11;;;;;;;4.65;2.80;;;22.90;64.00;;;;;;10449150;28;20045;-57
2023/07/16 18:50:11;;;;;;;3.47;2.38;;;22.90;64.00;;;;;;10448274;28;20096;-56
2023/07/16 18:55:12;;;;;;;3.10;2.70;;;22.90;64.10;;;;;;10448266;28;20045;-57
2023/07/16 19:00:13;;;;;;;3.67;2.40;;;22.90;64.10;;;;;;10447660;28;20492;-57
2023/07/16 19:05:14;;;;;;;2.67;2.05;;;22.90;64.00;;;;;;10448028;28;20472;-57
2023/07/16 19:10:15;;;;;;;3.95;2.58;;;22.90;64.10;;;;;;10430769;28;20136;-57
2023/07/16 19:15:15;;;;;;;2.95;2.42;;;22.90;64.10;;;;;;10424136;28;20410;-57
2023/07/16 19:20:16;;;;;;;3.83;2.40;;;22.90;64.10;;;;;;10447077;28;20051;-58
2023/07/16 19:25:17;;;;;;;3.88;2.55;;;22.90;64.10;;;;;;10447269;28;20089;-56
2023/07/16 19:30:18;;;;;;;3.08;1.80;;;22.90;64.20;;;;;;10447536;28;20028;-58
2023/07/16 19:35:18;;;;;;;3.67;2.00;;;22.80;64.10;;;;;;10447073;28;20109;-57
2023/07/16 19:40:19;;;;;;;2.80;1.85;;;22.80;64.10;;;;;;10446273;28;20053;-57
2023/07/16 19:45:20;;;;;;;4.22;1.98;;;22.80;64.10;;;;;;10446309;28;20029;-57
2023/07/16 19:50:20;;;;;;;3.53;1.90;;;22.80;64.20;;;;;;10446450;28;20040;-57
2023/07/16 19:55:21;;;;;;;4.00;2.10;;;22.80;64.10;;;;;;10444246;28;20112;-56
2023/07/16 20:00:23;;;;;;;3.17;2.50;;;22.80;64.10;;;;;;10445345;28;20116;-56
2023/07/16 20:05:23;;;;;;;4.05;2.80;;;22.80;64.10;;;;;;10444989;28;20439;-57
2023/07/16 20:10:24;;;;;;;4.82;2.28;;;22.80;64.00;;;;;;10425867;28;20021;-57
2023/07/16 20:15:25;;;;;;;2.85;1.77;;;22.80;64.00;;;;;;10422955;28;20028;-57
2023/07/16 20:20:25;;;;;;;3.20;2.10;;;22.80;64.00;;;;;;10444989;28;20116;-56
2023/07/16 20:25:26;;;;;;;3.60;2.30;;;22.80;64.00;;;;;;10444428;28;20078;-57
2023/07/16 20:30:27;;;;;;;3.25;2.08;;;22.80;63.80;;;;;;10443853;28;20051;-57
2023/07/16 20:35:28;;;;;;;4.38;1.65;;;22.80;63.80;;;;;;10443074;28;20112;-56
2023/07/16 20:40:30;;;;;;;3.45;2.25;;;22.80;63.70;;;;;;10441564;28;20036;-57
2023/07/16 20:45:34;;;;;;;3.42;2.25;;;22.80;63.70;;;;;;10442983;28;20217;-57
2023/07/16 20:50:35;;;;;;;3.17;1.70;;;22.80;63.70;;;;;;10442271;28;20021;-58
2023/07/16 20:55:36;;;;;;;2.83;1.98;;;22.80;63.60;;;;;;10442814;28;20289;-57
2023/07/16 21:00:38;;;;;;;3.72;2.35;;;22.80;63.50;;;;;;10441251;28;20568;-57
2023/07/16 21:05:38;;;;;;;3.75;2.20;;;22.80;63.50;;;;;;10442429;28;20060;-57
2023/07/16 21:10:39;;;;;;;2.88;1.98;;;22.80;63.50;;;;;;10422568;28;20159;-58
2023/07/16 21:15:40;;;;;;;4.85;1.98;;;22.80;63.40;;;;;;10420538;28;20535;-57
2023/07/16 21:20:40;;;;;;;2.90;1.77;;;22.70;63.30;;;;;;10431049;28;20568;-57
2023/07/16 21:25:41;;;;;;;3.35;2.55;;;22.80;63.30;;;;;;10450008;28;20104;-56
2023/07/16 21:30:42;;;;;;;3.13;1.83;;;22.70;63.30;;;;;;10450578;28;20128;-57
2023/07/16 21:35:42;;;;;;;3.15;2.17;;;22.70;63.30;;;;;;10449739;28;20333;-57
2023/07/16 21:40:43;;;;;;;2.80;2.15;;;22.70;63.30;;;;;;10449818;28;20120;-56
2023/07/16 21:45:44;;;;;;;2.78;1.90;;;22.70;63.30;;;;;;10449319;28;20491;-56
2023/07/16 21:50:44;;;;;;;2.95;1.98;;;22.70;63.70;;;;;;10449278;28;20451;-57
2023/07/16 21:55:45;;;;;;;3.58;1.77;;;22.70;63.00;;;;;;10448886;28;20110;-57
2023/07/16 22:00:47;;;;;;;3.60;2.15;;;22.70;63.00;;;;;;10448921;28;20040;-56
2023/07/16 22:05:47;;;;;;;3.05;1.88;;;22.70;63.00;;;;;;10448585;28;20387;-57
2023/07/16 22:10:49;;;;;;;3.65;1.70;;;22.70;63.60;;;;;;10428023;28;20116;-57
2023/07/16 22:15:49;;;;;;;3.50;1.75;;;22.70;63.00;;;;;;10428942;28;20024;-55
2023/07/16 22:20:50;;;;;;;2.42;1.83;;;22.70;63.10;;;;;;10448223;28;20444;-57
2023/07/16 22:25:51;;;;;;;3.05;1.80;;;22.70;63.30;;;;;;10448188;28;20029;-57
2023/07/16 22:30:52;;;;;;;2.58;1.77;;;22.70;63.20;;;;;;10447308;28;20017;-55
2023/07/16 22:35:52;;;;;;;3.30;1.85;;;22.70;63.10;;;;;;10447365;28;20151;-57
2023/07/16 22:40:53;;;;;;;2.63;1.55;;;22.70;63.30;;;;;;10446857;28;20240;-56
2023/07/16 22:45:54;;;;;;;3.45;2.08;;;22.70;63.40;;;;;;10447164;28;20021;-58
2023/07/16 22:50:54;;;;;;;2.60;1.50;;;22.70;63.60;;;;;;10447114;28;20159;-57
2023/07/16 22:55:55;;;;;;;3.15;1.77;;;22.70;63.60;;;;;;10446978;28;20104;-56
2023/07/16 23:00:56;;;;;;;3.20;2.00;;;22.60;63.60;;;;;;10446826;28;20033;-57
2023/07/16 23:05:56;;;;;;;2.80;1.90;;;22.60;63.70;;;;;;10446766;28;20139;-57
2023/07/16 23:10:59;;;;;;;2.72;1.98;;;22.60;63.70;;;;;;10424124;28;20075;-57
2023/07/16 23:16:00;;;;;;;3.00;1.88;;;22.60;63.70;;;;;;10428740;28;20025;-57
2023/07/16 23:21:01;;;;;;;3.88;2.38;;;22.60;63.70;;;;;;10444445;28;20044;-57
2023/07/16 23:26:03;;;;;;;2.08;1.27;;;22.60;63.70;;;;;;10445627;28;20473;-57
2023/07/16 23:31:04;;;;;;;2.92;1.50;;;22.60;63.80;;;;;;10445529;28;20017;-57
2023/07/16 23:36:05;;;;;;;2.88;1.85;;;22.60;63.70;;;;;;10445423;28;20593;-57
2023/07/16 23:41:05;;;;;;;2.58;1.80;;;22.60;63.40;;;;;;10444051;28;20051;-57
2023/07/16 23:46:06;;;;;;;2.42;1.92;;;22.60;63.40;;;;;;10444808;28;20121;-56
2023/07/16 23:51:07;;;;;;;3.10;1.52;;;22.60;63.50;;;;;;10444982;28;20134;-56
2023/07/16 23:56:07;;;;;;;2.22;1.83;;;22.60;63.60;;;;;;10445044;28;20102;-57
